Time;durP1;ratioP1;P1;durP2;ratioP2;P2;SDS_P1;SDS_P2;PMS_P1;PMS_P2;Temp;Humidity;BMP_temperature;BMP_pressure;BME280_temperature;BME280_humidity;BME280_pressure;Samples;Min_cycle;Max_cycle;Signal;HPM_P1;HPM_P2
2021/08/13 00:02:24;;;;;;;;;;;21.10;80.30;;;;;;5049468;28;20328;-72
2021/08/13 00:04:49;;;;;;;;;;;21.10;80.50;;;;;;5049470;28;19916;-72
2021/08/13 00:07:14;;;;;;;;;;;21.10;81.00;;;;;;5049764;28;19912;-73
2021/08/13 00:09:40;;;;;;;;;;;21.10;81.40;;;;;;5051241;28;19905;-72
2021/08/13 00:12:06;;;;;;;;;;;21.00;81.60;;;;;;5050906;28;20360;-72
2021/08/13 00:14:31;;;;;;;;;;;21.00;81.50;;;;;;5049723;28;20378;-73
2021/08/13 00:16:57;;;;;;;;;;;21.00;81.10;;;;;;5050557;28;19917;-72
2021/08/13 00:19:22;;;;;;;;;;;21.00;81.10;;;;;;5049481;28;19920;-72
2021/08/13 00:21:49;;;;;;;;;;;21.00;81.10;;;;;;5050816;28;20394;-72
2021/08/13 00:24:15;;;;;;;;;;;21.00;82.30;;;;;;5047998;28;19950;-72
2021/08/13 00:26:40;;;;;;;;;;;20.90;82.40;;;;;;5050572;28;19998;-72
2021/08/13 00:29:06;;;;;;;;;;;20.90;83.20;;;;;;5050063;28;20148;-73
2021/08/13 00:31:31;;;;;;;;;;;20.90;82.80;;;;;;5050581;28;19916;-72
2021/08/13 00:33:57;;;;;;;;;;;20.90;82.80;;;;;;5048734;28;19943;-72
2021/08/13 00:36:22;;;;;;;;;;;20.80;82.50;;;;;;5050241;28;19912;-72
2021/08/13 00:38:47;;;;;;;;;;;20.80;83.40;;;;;;5049244;28;20276;-72
2021/08/13 00:41:13;;;;;;;;;;;20.80;83.40;;;;;;5050097;28;20369;-72
2021/08/13 00:43:38;;;;;;;;;;;20.80;83.80;;;;;;5049404;28;19916;-72
2021/08/13 00:46:04;;;;;;;;;;;20.80;83.80;;;;;;5047068;28;20513;-73
2021/08/13 00:48:29;;;;;;;;;;;20.80;84.20;;;;;;5050516;28;19951;-76
2021/08/13 00:50:55;;;;;;;;;;;20.80;84.60;;;;;;5049758;28;19912;-76
2021/08/13 00:53:21;;;;;;;;;;;20.80;84.50;;;;;;5049856;28;19912;-76
2021/08/13 00:55:48;;;;;;;;;;;20.80;83.90;;;;;;5048844;28;19917;-75
2021/08/13 00:58:14;;;;;;;;;;;20.80;84.50;;;;;;5049555;28;19905;-75
2021/08/13 01:00:40;;;;;;;;;;;20.70;85.10;;;;;;5050297;28;19912;-76
2021/08/13 01:03:06;;;;;;;;;;;20.70;85.60;;;;;;5049669;28;19909;-75
2021/08/13 01:05:31;;;;;;;;;;;20.70;85.50;;;;;;5048580;28;19916;-75
2021/08/13 01:07:57;;;;;;;;;;;20.70;85.60;;;;;;5050209;28;20261;-76
2021/08/13 01:10:24;;;;;;;;;;;20.60;85.90;;;;;;5050106;28;20278;-76
2021/08/13 01:12:55;;;;;;;;;;;20.60;86.10;;;;;;5050060;28;19944;-76
2021/08/13 01:15:21;;;;;;;;;;;20.60;86.30;;;;;;5048942;28;19968;-68
2021/08/13 01:17:58;;;;;;;;;;;20.60;86.30;;;;;;5048214;28;19978;-68
2021/08/13 01:20:42;;;;;;;;;;;20.60;86.30;;;;;;5049315;28;19915;-68
2021/08/13 01:23:18;;;;;;;;;;;20.60;86.30;;;;;;5049934;28;19931;-68
2021/08/13 01:25:47;;;;;;;;;;;20.60;86.10;;;;;;5049047;28;19908;-68
2021/08/13 01:28:21;;;;;;;;;;;20.50;86.00;;;;;;5047782;28;19904;-68
2021/08/13 01:30:46;;;;;;;;;;;20.50;85.80;;;;;;5049870;28;19908;-68
2021/08/13 01:33:13;;;;;;;;;;;20.50;85.90;;;;;;5048084;28;19931;-68
2021/08/13 01:35:40;;;;;;;;;;;20.50;86.10;;;;;;5048890;28;20368;-68
2021/08/13 01:38:18;;;;;;;;;;;20.50;86.30;;;;;;5049758;28;20411;-68
2021/08/13 01:40:47;;;;;;;;;;;20.50;86.40;;;;;;5048182;28;19909;-68
2021/08/13 01:43:14;;;;;;;;;;;20.50;86.20;;;;;;5049635;28;19904;-68
2021/08/13 01:45:40;;;;;;;;;;;20.50;86.00;;;;;;5048884;28;19909;-68
2021/08/13 01:48:07;;;;;;;;;;;20.40;86.20;;;;;;5048799;28;19958;-68
2021/08/13 01:50:33;;;;;;;;;;;20.40;86.50;;;;;;5049796;28;19904;-68
2021/08/13 01:52:59;;;;;;;;;;;20.30;86.40;;;;;;5055644;28;19920;-75
2021/08/13 01:55:25;;;;;;;;;;;20.30;86.40;;;;;;5048962;28;19913;-76
2021/08/13 01:57:51;;;;;;;;;;;20.30;86.50;;;;;;5048354;28;19962;-75
2021/08/13 02:00:18;;;;;;;;;;;20.30;86.60;;;;;;5049799;28;19905;-76
2021/08/13 02:02:44;;;;;;;;;;;20.20;86.30;;;;;;5049308;28;19904;-76
2021/08/13 02:05:10;;;;;;;;;;;20.20;86.70;;;;;;5048933;28;19912;-76
2021/08/13 02:07:37;;;;;;;;;;;20.10;86.90;;;;;;5047988;28;19912;-75
2021/08/13 02:10:07;;;;;;;;;;;20.10;87.00;;;;;;5049302;28;19905;-75
2021/08/13 02:12:33;;;;;;;;;;;20.10;87.10;;;;;;5048588;28;20002;-75
2021/08/13 02:14:59;;;;;;;;;;;20.00;87.40;;;;;;5049300;28;19947;-73
2021/08/13 02:17:28;;;;;;;;;;;20.00;87.50;;;;;;5051995;28;20260;-72
2021/08/13 02:19:57;;;;;;;;;;;20.00;87.70;;;;;;5052973;28;19908;-72
2021/08/13 02:22:23;;;;;;;;;;;20.00;87.90;;;;;;5052664;28;19905;-72
2021/08/13 02:24:48;;;;;;;;;;;19.90;88.00;;;;;;5051314;28;19909;-73
2021/08/13 02:27:14;;;;;;;;;;;19.90;88.20;;;;;;5052864;28;19905;-72
2021/08/13 02:29:39;;;;;;;;;;;19.90;88.00;;;;;;5052056;28;20252;-72
2021/08/13 02:32:05;;;;;;;;;;;19.80;88.60;;;;;;5052993;28;20422;-72
2021/08/13 02:34:30;;;;;;;;;;;19.80;89.70;;;;;;5050542;28;19912;-72
2021/08/13 02:37:07;;;;;;;;;;;19.80;89.90;;;;;;5052882;28;19954;-72
2021/08/13 02:39:41;;;;;;;;;;;19.70;89.80;;;;;;5052297;28;19912;-72
2021/08/13 02:42:08;;;;;;;;;;;19.60;89.40;;;;;;5052549;28;19909;-72
2021/08/13 02:44:34;;;;;;;;;;;19.60;88.10;;;;;;5050795;28;19916;-72
2021/08/13 02:47:02;;;;;;;;;;;19.60;87.60;;;;;;5052718;28;19958;-72
2021/08/13 02:49:28;;;;;;;;;;;19.50;88.60;;;;;;5052112;28;19916;-72
2021/08/13 02:51:56;;;;;;;;;;;19.50;89.30;;;;;;5051391;28;19954;-72
2021/08/13 02:54:25;;;;;;;;;;;19.50;89.50;;;;;;5050682;28;19909;-72
2021/08/13 02:56:53;;;;;;;;;;;19.50;89.60;;;;;;5051747;28;19915;-72
2021/08/13 02:59:19;;;;;;;;;;;19.40;90.00;;;;;;5051219;28;19919;-73
2021/08/13 03:01:46;;;;;;;;;;;19.40;90.20;;;;;;5050741;28;20355;-72
2021/08/13 03:04:13;;;;;;;;;;;19.40;90.40;;;;;;5050291;28;19915;-72
2021/08/13 03:06:39;;;;;;;;;;;19.30;90.40;;;;;;5051883;28;19912;-72
2021/08/13 03:09:06;;;;;;;;;;;19.30;90.60;;;;;;5050740;28;19920;-72
2021/08/13 03:11:32;;;;;;;;;;;19.30;90.90;;;;;;5052331;28;19909;-72
2021/08/13 03:13:58;;;;;;;;;;;19.20;91.00;;;;;;5049199;28;20268;-68
2021/08/13 03:16:23;;;;;;;;;;;19.20;91.10;;;;;;5050672;28;19932;-68
2021/08/13 03:18:49;;;;;;;;;;;19.10;90.90;;;;;;5050285;28;19966;-68
2021/08/13 03:21:15;;;;;;;;;;;19.20;91.00;;;;;;5051238;28;19928;-68
2021/08/13 03:23:41;;;;;;;;;;;19.10;91.00;;;;;;5050850;28;20360;-68
2021/08/13 03:26:06;;;;;;;;;;;19.10;91.10;;;;;;5041955;28;20046;-68
2021/08/13 03:28:33;;;;;;;;;;;19.10;91.20;;;;;;5049535;28;20367;-68
2021/08/13 03:30:58;;;;;;;;;;;19.10;91.40;;;;;;5051070;28;20438;-68
2021/08/13 03:33:24;;;;;;;;;;;19.00;91.60;;;;;;5051599;28;19905;-68
2021/08/13 03:35:50;;;;;;;;;;;19.00;91.30;;;;;;5049111;28;20282;-68
2021/08/13 03:38:15;;;;;;;;;;;18.90;91.20;;;;;;5051553;28;19905;-68
2021/08/13 03:40:41;;;;;;;;;;;18.90;91.60;;;;;;5051304;28;19963;-68
2021/08/13 03:43:06;;;;;;;;;;;18.90;91.80;;;;;;5051641;28;19932;-68
2021/08/13 03:45:32;;;;;;;;;;;18.80;91.50;;;;;;5047976;28;19915;-68
2021/08/13 03:47:57;;;;;;;;;;;18.80;91.90;;;;;;5051582;28;20356;-68
2021/08/13 03:50:23;;;;;;;;;;;18.80;91.70;;;;;;5050380;28;19911;-68
2021/08/13 03:52:48;;;;;;;;;;;18.80;91.30;;;;;;5050137;28;19987;-68
2021/08/13 03:55:14;;;;;;;;;;;18.80;91.30;;;;;;5050225;28;19908;-68
2021/08/13 03:57:40;;;;;;;;;;;18.70;91.50;;;;;;5049703;28;19955;-68
2021/08/13 04:00:06;;;;;;;;;;;18.80;91.40;;;;;;5050262;28;19951;-68
2021/08/13 04:02:31;;;;;;;;;;;18.80;92.00;;;;;;5050966;28;19905;-68
2021/08/13 04:04:56;;;;;;;;;;;18.80;92.00;;;;;;5055794;28;19913;-68
2021/08/13 04:07:22;;;;;;;;;;;18.80;91.80;;;;;;5049704;28;19904;-68
2021/08/13 04:09:47;;;;;;;;;;;18.70;91.50;;;;;;5051207;28;19912;-68
2021/08/13 04:12:13;;;;;;;;;;;18.70;91.50;;;;;;5050940;28;19908;-68
2021/08/13 04:14:38;;;;;;;;;;;18.70;92.00;;;;;;5048329;28;19931;-71
2021/08/13 04:17:04;;;;;;;;;;;18.70;92.20;;;;;;5051063;28;19939;-72
2021/08/13 04:19:29;;;;;;;;;;;18.70;92.20;;;;;;5049910;28;20023;-70
2021/08/13 04:21:55;;;;;;;;;;;18.70;92.50;;;;;;5050950;28;20374;-70
2021/08/13 04:24:20;;;;;;;;;;;18.80;92.30;;;;;;5049780;28;19909;-70
2021/08/13 04:26:45;;;;;;;;;;;18.80;92.20;;;;;;5049207;28;19959;-68
2021/08/13 04:29:11;;;;;;;;;;;18.90;92.20;;;;;;5049377;28;20279;-68
2021/08/13 04:31:36;;;;;;;;;;;18.90;92.20;;;;;;5049231;28;20356;-68
2021/08/13 04:34:02;;;;;;;;;;;18.90;92.10;;;;;;5048793;28;20368;-68
2021/08/13 04:36:28;;;;;;;;;;;18.90;92.10;;;;;;5050134;28;19917;-68
2021/08/13 04:38:53;;;;;;;;;;;19.00;92.10;;;;;;5048703;28;20387;-68
2021/08/13 04:41:18;;;;;;;;;;;19.10;92.00;;;;;;5049941;28;19905;-68
2021/08/13 04:43:44;;;;;;;;;;;19.20;91.80;;;;;;5049307;28;19908;-68
2021/08/13 04:46:09;;;;;;;;;;;19.30;91.70;;;;;;5049121;28;19955;-68
2021/08/13 04:48:35;;;;;;;;;;;19.40;91.70;;;;;;5049268;28;19912;-68
2021/08/13 04:51:00;;;;;;;;;;;19.50;91.70;;;;;;5050254;28;20276;-68
2021/08/13 04:53:26;;;;;;;;;;;19.50;91.60;;;;;;5048883;28;20356;-68
2021/08/13 04:55:51;;;;;;;;;;;19.40;91.70;;;;;;5049301;28;20443;-68
2021/08/13 04:58:16;;;;;;;;;;;19.40;91.70;;;;;;5048797;28;19920;-68
2021/08/13 05:00:43;;;;;;;;;;;19.60;91.50;;;;;;5049311;28;19912;-68
2021/08/13 05:03:08;;;;;;;;;;;19.70;91.50;;;;;;5048792;28;20322;-68
2021/08/13 05:05:34;;;;;;;;;;;19.90;91.20;;;;;;5049207;28;19943;-71
2021/08/13 05:07:59;;;;;;;;;;;20.20;90.90;;;;;;5048995;28;19915;-72
2021/08/13 05:10:25;;;;;;;;;;;20.30;90.60;;;;;;5050009;28;19923;-72
2021/08/13 05:12:51;;;;;;;;;;;20.30;90.50;;;;;;5050073;28;19959;-70
2021/08/13 05:15:16;;;;;;;;;;;20.40;90.50;;;;;;5048251;28;19908;-75
2021/08/13 05:17:41;;;;;;;;;;;20.60;90.30;;;;;;5049360;28;19916;-75
2021/08/13 05:20:08;;;;;;;;;;;20.80;90.00;;;;;;5056489;28;20368;-70
2021/08/13 05:22:34;;;;;;;;;;;21.10;89.10;;;;;;5049850;28;19909;-68
2021/08/13 05:25:04;;;;;;;;;;;21.40;88.30;;;;;;5048992;28;20031;-68
2021/08/13 05:27:30;;;;;;;;;;;21.40;87.70;;;;;;5056484;28;19913;-68
2021/08/13 05:29:55;;;;;;;;;;;21.30;87.30;;;;;;5047323;28;19909;-71
2021/08/13 05:32:22;;;;;;;;;;;21.20;87.40;;;;;;5048348;28;19908;-71
2021/08/13 05:37:06;;;;;;;;;;;21.10;87.70;;;;;;5050619;27;19924;-69
2021/08/13 05:39:31;;;;;;;;;;;21.40;87.30;;;;;;5072332;28;20631;-69
2021/08/13 05:41:57;;;;;;;;;;;21.50;87.00;;;;;;5057141;28;19912;-69
2021/08/13 05:44:22;;;;;;;;;;;21.60;86.60;;;;;;5056736;28;19913;-69
2021/08/13 05:46:48;;;;;;;;;;;21.60;86.50;;;;;;5057842;28;19921;-69
2021/08/13 05:49:13;;;;;;;;;;;21.60;86.40;;;;;;5057796;28;19909;-67
2021/08/13 05:51:39;;;;;;;;;;;21.60;86.60;;;;;;5056835;28;20323;-67
2021/08/13 05:54:04;;;;;;;;;;;21.60;86.30;;;;;;5056374;28;20380;-67
2021/08/13 05:56:29;;;;;;;;;;;21.60;86.10;;;;;;5056841;28;19921;-67
2021/08/13 05:59:00;;;;;;;;;;;21.80;86.00;;;;;;5057445;28;19963;-75
2021/08/13 06:01:25;;;;;;;;;;;21.70;85.40;;;;;;5057161;28;20027;-75
2021/08/13 06:03:51;;;;;;;;;;;21.70;85.50;;;;;;5056185;28;20447;-75
2021/08/13 06:06:16;;;;;;;;;;;21.80;85.10;;;;;;5055770;28;20276;-77
2021/08/13 06:08:41;;;;;;;;;;;21.70;85.30;;;;;;5055875;28;20360;-77
2021/08/13 06:11:07;;;;;;;;;;;21.70;85.20;;;;;;5056102;28;19909;-76
2021/08/13 06:13:32;;;;;;;;;;;21.80;84.80;;;;;;5056647;28;19913;-76
2021/08/13 06:15:58;;;;;;;;;;;22.00;84.30;;;;;;5056270;28;19920;-76
2021/08/13 06:18:23;;;;;;;;;;;22.10;84.30;;;;;;5056741;28;20319;-76
2021/08/13 06:20:49;;;;;;;;;;;22.30;83.90;;;;;;5056850;28;20418;-76
2021/08/13 06:23:14;;;;;;;;;;;22.50;83.30;;;;;;5056841;28;19966;-76
2021/08/13 06:25:40;;;;;;;;;;;22.70;83.00;;;;;;5056050;28;20288;-76
2021/08/13 06:28:05;;;;;;;;;;;22.80;82.20;;;;;;5056010;28;20388;-76
2021/08/13 06:30:30;;;;;;;;;;;22.70;82.00;;;;;;5056920;28;19913;-76
2021/08/13 06:32:57;;;;;;;;;;;22.70;81.90;;;;;;5038784;28;19909;-76
2021/08/13 06:35:22;;;;;;;;;;;22.80;81.90;;;;;;5061769;28;19917;-76
2021/08/13 06:37:52;;;;;;;;;;;22.90;81.50;;;;;;5076537;28;20494;-76
2021/08/13 06:40:18;;;;;;;;;;;22.90;81.50;;;;;;5076370;28;19909;-76
2021/08/13 06:42:43;;;;;;;;;;;23.00;81.20;;;;;;5076571;28;19912;-76
2021/08/13 06:45:09;;;;;;;;;;;23.10;80.80;;;;;;5075469;28;20306;-76
2021/08/13 06:47:35;;;;;;;;;;;23.30;80.30;;;;;;5067688;28;19948;-76
2021/08/13 06:50:00;;;;;;;;;;;23.40;80.30;;;;;;5063011;28;19912;-76
2021/08/13 06:52:26;;;;;;;;;;;23.40;80.00;;;;;;5045098;28;19916;-76
2021/08/13 06:54:51;;;;;;;;;;;23.40;80.10;;;;;;5062210;28;19913;-76
2021/08/13 06:57:16;;;;;;;;;;;23.50;79.70;;;;;;5062622;28;19912;-76
2021/08/13 06:59:42;;;;;;;;;;;23.70;79.50;;;;;;5044287;28;20371;-76
2021/08/13 07:02:07;;;;;;;;;;;23.80;78.80;;;;;;5063032;28;19924;-76
2021/08/13 07:04:33;;;;;;;;;;;23.80;78.90;;;;;;5061682;28;19971;-76
2021/08/13 07:06:58;;;;;;;;;;;23.90;78.80;;;;;;5062818;28;19917;-76
2021/08/13 07:09:24;;;;;;;;;;;24.00;78.50;;;;;;5062591;28;19909;-74
2021/08/13 07:11:49;;;;;;;;;;;24.10;78.10;;;;;;5062012;28;19913;-73
2021/08/13 07:14:15;;;;;;;;;;;24.20;78.10;;;;;;5061356;28;20419;-69
2021/08/13 07:16:40;;;;;;;;;;;24.40;77.60;;;;;;5062719;28;19958;-69
2021/08/13 07:19:05;;;;;;;;;;;24.50;77.40;;;;;;5062444;28;19916;-73
2021/08/13 07:21:31;;;;;;;;;;;24.60;76.80;;;;;;5062919;28;19946;-72
2021/08/13 07:23:56;;;;;;;;;;;24.50;76.70;;;;;;5061836;28;19913;-75
2021/08/13 07:26:22;;;;;;;;;;;24.60;76.60;;;;;;5062397;28;20367;-76
2021/08/13 07:28:48;;;;;;;;;;;24.60;76.50;;;;;;5062463;28;19990;-76
2021/08/13 07:31:13;;;;;;;;;;;24.80;76.10;;;;;;5062345;28;20399;-76
2021/08/13 07:33:39;;;;;;;;;;;24.90;75.80;;;;;;5061382;28;19917;-76
2021/08/13 07:36:05;;;;;;;;;;;25.00;75.50;;;;;;5061371;28;19916;-71
2021/08/13 07:38:34;;;;;;;;;;;25.20;75.50;;;;;;5062204;28;20093;-71
2021/08/13 07:41:00;;;;;;;;;;;25.30;75.00;;;;;;5062342;28;19908;-71
2021/08/13 07:43:26;;;;;;;;;;;25.30;74.30;;;;;;5060595;28;19909;-76
2021/08/13 07:45:51;;;;;;;;;;;25.50;74.40;;;;;;5060903;28;19998;-77
2021/08/13 07:48:17;;;;;;;;;;;25.60;73.90;;;;;;5060065;28;19957;-76
2021/08/13 07:50:42;;;;;;;;;;;25.60;73.70;;;;;;5061826;28;19909;-76
2021/08/13 07:53:07;;;;;;;;;;;25.70;73.10;;;;;;5061825;28;19917;-76
2021/08/13 07:55:33;;;;;;;;;;;25.60;72.80;;;;;;5061147;28;20005;-76
2021/08/13 07:57:58;;;;;;;;;;;25.70;73.00;;;;;;5060272;28;19913;-76
2021/08/13 08:00:24;;;;;;;;;;;25.90;72.90;;;;;;5060607;28;19909;-76
2021/08/13 08:02:49;;;;;;;;;;;25.90;72.80;;;;;;5060441;28;20383;-76
2021/08/13 08:05:15;;;;;;;;;;;25.90;72.30;;;;;;5060731;28;19927;-76
2021/08/13 08:07:40;;;;;;;;;;;26.00;71.70;;;;;;5060689;28;20335;-76
2021/08/13 08:10:06;;;;;;;;;;;26.00;71.40;;;;;;5061439;28;19966;-76
2021/08/13 08:12:31;;;;;;;;;;;26.00;71.80;;;;;;5059877;28;20283;-69
2021/08/13 08:14:57;;;;;;;;;;;26.10;71.60;;;;;;5059072;28;20379;-69
2021/08/13 08:17:23;;;;;;;;;;;26.00;71.20;;;;;;5061240;28;20386;-69
2021/08/13 08:19:48;;;;;;;;;;;26.00;71.00;;;;;;5059853;28;19924;-69
2021/08/13 08:22:14;;;;;;;;;;;26.00;71.50;;;;;;5061357;28;19909;-76
2021/08/13 08:24:40;;;;;;;;;;;26.10;71.90;;;;;;5060097;28;19917;-71
2021/08/13 08:27:06;;;;;;;;;;;26.20;71.50;;;;;;5060137;28;19917;-71
2021/08/13 08:29:31;;;;;;;;;;;26.40;71.50;;;;;;5061364;28;19961;-71
2021/08/13 08:31:57;;;;;;;;;;;26.60;70.40;;;;;;5060542;28;19938;-71
2021/08/13 08:34:22;;;;;;;;;;;26.70;70.20;;;;;;5060340;28;19920;-71
2021/08/13 08:36:47;;;;;;;;;;;26.70;70.20;;;;;;5060753;28;20342;-71
2021/08/13 08:39:13;;;;;;;;;;;26.70;68.90;;;;;;5060700;28;20447;-71
2021/08/13 08:41:38;;;;;;;;;;;26.80;69.00;;;;;;5060800;28;19912;-70
2021/08/13 08:44:04;;;;;;;;;;;26.90;68.60;;;;;;5058184;28;20011;-76
2021/08/13 08:46:30;;;;;;;;;;;27.00;67.90;;;;;;5060762;28;19913;-71
2021/08/13 08:48:56;;;;;;;;;;;27.20;66.80;;;;;;5060501;28;19919;-76
2021/08/13 08:51:23;;;;;;;;;;;27.20;66.70;;;;;;5060052;28;19995;-76
2021/08/13 08:53:50;;;;;;;;;;;27.30;66.60;;;;;;5059807;28;19916;-74
2021/08/13 08:56:18;;;;;;;;;;;27.40;66.40;;;;;;5059349;28;19939;-73
2021/08/13 08:58:44;;;;;;;;;;;27.60;65.70;;;;;;5060135;28;19915;-73
2021/08/13 09:01:11;;;;;;;;;;;27.70;64.20;;;;;;5060494;28;19930;-73
2021/08/13 09:03:37;;;;;;;;;;;27.60;63.20;;;;;;5060786;28;20031;-71
2021/08/13 09:06:03;;;;;;;;;;;27.60;64.00;;;;;;5060124;28;20007;-73
2021/08/13 09:08:29;;;;;;;;;;;27.60;64.30;;;;;;5059992;28;19921;-73
2021/08/13 09:10:54;;;;;;;;;;;27.60;65.00;;;;;;5060280;28;19966;-73
2021/08/13 09:13:23;;;;;;;;;;;27.70;64.40;;;;;;5060296;28;20209;-73
2021/08/13 09:15:49;;;;;;;;;;;27.70;64.10;;;;;;5059376;28;20011;-74
2021/08/13 09:18:14;;;;;;;;;;;27.60;64.00;;;;;;5059043;28;20418;-69
2021/08/13 09:20:45;;;;;;;;;;;27.70;62.90;;;;;;5060739;28;19908;-69
2021/08/13 09:23:26;;;;;;;;;;;27.80;63.80;;;;;;5042179;28;20003;-69
2021/08/13 09:25:58;;;;;;;;;;;27.90;63.50;;;;;;5059399;28;19916;-69
2021/08/13 09:28:44;;;;;;;;;;;28.00;63.50;;;;;;5058296;28;19909;-69
2021/08/13 09:31:10;;;;;;;;;;;28.00;63.30;;;;;;5058038;28;20359;-69
2021/08/13 09:33:36;;;;;;;;;;;28.00;63.00;;;;;;5060012;28;19919;-69
2021/08/13 09:36:02;;;;;;;;;;;28.00;63.20;;;;;;5057336;28;19920;-69
2021/08/13 09:38:28;;;;;;;;;;;28.00;61.90;;;;;;5057609;28;19912;-69
2021/08/13 09:41:03;;;;;;;;;;;27.90;62.30;;;;;;5060039;28;19952;-69
2021/08/13 09:43:29;;;;;;;;;;;27.90;62.30;;;;;;5059547;28;20019;-69
2021/08/13 09:46:05;;;;;;;;;;;27.80;61.40;;;;;;5058272;28;20020;-69
2021/08/13 09:48:31;;;;;;;;;;;27.70;61.80;;;;;;5060054;28;20383;-69
2021/08/13 09:50:56;;;;;;;;;;;27.70;62.40;;;;;;5058855;28;20234;-73
2021/08/13 09:53:22;;;;;;;;;;;27.80;62.50;;;;;;5059727;28;19908;-73
2021/08/13 09:55:47;;;;;;;;;;;27.90;62.40;;;;;;5059005;28;19964;-74
2021/08/13 09:58:22;;;;;;;;;;;28.00;62.60;;;;;;5059884;28;20283;-73
2021/08/13 10:00:48;;;;;;;;;;;28.10;61.80;;;;;;5059705;28;19915;-73
2021/08/13 10:03:14;;;;;;;;;;;28.20;61.50;;;;;;5059949;28;19908;-74
2021/08/13 10:05:39;;;;;;;;;;;28.30;61.10;;;;;;5059022;28;19939;-74
2021/08/13 10:08:05;;;;;;;;;;;28.40;60.80;;;;;;5059432;28;20368;-73
2021/08/13 10:10:32;;;;;;;;;;;28.50;61.40;;;;;;5058776;28;19949;-74
2021/08/13 10:12:58;;;;;;;;;;;28.70;61.20;;;;;;5059493;28;19920;-73
2021/08/13 10:15:30;;;;;;;;;;;28.70;60.30;;;;;;5058512;28;19916;-74
2021/08/13 10:17:57;;;;;;;;;;;28.70;60.60;;;;;;5059835;28;19913;-73
2021/08/13 10:20:23;;;;;;;;;;;29.00;60.90;;;;;;5059750;28;19920;-73
2021/08/13 10:22:49;;;;;;;;;;;29.10;59.60;;;;;;5061456;28;19940;-74
2021/08/13 10:25:15;;;;;;;;;;;29.10;58.60;;;;;;5061972;28;20316;-74
2021/08/13 10:27:40;;;;;;;;;;;29.20;59.30;;;;;;5063005;28;19967;-74
2021/08/13 10:30:06;;;;;;;;;;;29.30;59.70;;;;;;5063541;28;20288;-74
2021/08/13 10:32:33;;;;;;;;;;;29.40;58.90;;;;;;5063183;28;20015;-74
2021/08/13 10:34:58;;;;;;;;;;;29.40;59.10;;;;;;5059888;28;19971;-74
2021/08/13 10:37:25;;;;;;;;;;;29.40;58.60;;;;;;5062841;28;20246;-77
2021/08/13 10:39:54;;;;;;;;;;;29.30;57.70;;;;;;5063324;28;19923;-77
2021/08/13 10:42:21;;;;;;;;;;;29.20;58.30;;;;;;5061822;28;20403;-77
2021/08/13 10:45:07;;;;;;;;;;;29.20;58.70;;;;;;5062736;28;19964;-77
2021/08/13 10:47:34;;;;;;;;;;;29.30;58.30;;;;;;5061679;28;20356;-74
2021/08/13 10:50:00;;;;;;;;;;;29.40;58.50;;;;;;5062393;28;20394;-74
2021/08/13 10:52:35;;;;;;;;;;;29.50;57.30;;;;;;5062665;28;19909;-73
2021/08/13 10:55:01;;;;;;;;;;;29.60;56.60;;;;;;5062529;28;19956;-74
2021/08/13 10:57:45;;;;;;;;;;;29.60;56.20;;;;;;5062546;28;20001;-77
2021/08/13 11:00:11;;;;;;;;;;;29.40;56.20;;;;;;5061461;28;19913;-77
2021/08/13 11:02:36;;;;;;;;;;;29.40;56.60;;;;;;5062333;28;20314;-77
2021/08/13 11:05:01;;;;;;;;;;;29.40;56.90;;;;;;5062341;28;19936;-69
2021/08/13 11:07:45;;;;;;;;;;;29.40;56.50;;;;;;5061683;28;20425;-69
2021/08/13 11:10:29;;;;;;;;;;;29.40;56.60;;;;;;5062777;28;19909;-73
2021/08/13 11:13:08;;;;;;;;;;;29.40;56.20;;;;;;5062563;28;20179;-75
2021/08/13 11:15:37;;;;;;;;;;;29.40;56.60;;;;;;5061908;28;19943;-74
2021/08/13 11:18:22;;;;;;;;;;;29.60;57.10;;;;;;5062489;28;19909;-73
2021/08/13 11:20:48;;;;;;;;;;;29.70;56.90;;;;;;5062496;28;19937;-73
2021/08/13 11:23:13;;;;;;;;;;;29.80;56.30;;;;;;5062103;28;20451;-77
2021/08/13 11:25:49;;;;;;;;;;;29.90;56.10;;;;;;5060457;28;19919;-77
2021/08/13 11:28:16;;;;;;;;;;;30.10;55.90;;;;;;5062460;28;19912;-69
2021/08/13 11:30:42;;;;;;;;;;;30.20;54.30;;;;;;5062251;28;19960;-69
2021/08/13 11:33:29;;;;;;;;;;;30.30;55.40;;;;;;5062122;28;20358;-72
2021/08/13 11:35:56;;;;;;;;;;;30.50;54.30;;;;;;5062069;28;19917;-72
2021/08/13 11:38:40;;;;;;;;;;;30.50;53.80;;;;;;5061767;28;19915;-77
2021/08/13 11:41:20;;;;;;;;;;;30.60;54.20;;;;;;5061995;28;19917;-77
2021/08/13 11:43:49;;;;;;;;;;;30.70;53.30;;;;;;5061562;28;19908;-69
2021/08/13 11:46:23;;;;;;;;;;;30.70;53.50;;;;;;5061838;28;19919;-74
2021/08/13 11:48:49;;;;;;;;;;;30.70;53.00;;;;;;5061573;28;19958;-77
2021/08/13 11:51:15;;;;;;;;;;;30.70;53.30;;;;;;5007494;23;20324;-77
2021/08/13 11:53:41;;;;;;;;;;;30.70;53.40;;;;;;4998842;28;19913;-75
2021/08/13 11:56:06;;;;;;;;;;;30.70;52.80;;;;;;4992576;28;20192;-74
2021/08/13 11:58:31;;;;;;;;;;;30.80;53.20;;;;;;4992312;28;19920;-70
2021/08/13 12:01:01;;;;;;;;;;;30.80;52.80;;;;;;5007623;28;19914;-77
2021/08/13 12:03:27;;;;;;;;;;;31.00;53.30;;;;;;4991810;28;19963;-72
2021/08/13 12:05:52;;;;;;;;;;;31.00;52.60;;;;;;4992203;28;19917;-74
2021/08/13 12:08:17;;;;;;;;;;;30.80;53.00;;;;;;4991807;28;20284;-73
2021/08/13 12:10:48;;;;;;;;;;;30.70;53.10;;;;;;4992270;28;19971;-77
2021/08/13 12:13:13;;;;;;;;;;;30.60;52.90;;;;;;4992298;28;20328;-77
2021/08/13 12:15:40;;;;;;;;;;;30.60;53.30;;;;;;4991341;28;19922;-77
2021/08/13 12:18:06;;;;;;;;;;;30.60;53.10;;;;;;4991820;28;19917;-77
2021/08/13 12:20:32;;;;;;;;;;;30.70;53.60;;;;;;4991869;28;19913;-77
2021/08/13 12:23:04;;;;;;;;;;;30.90;53.30;;;;;;4991552;28;19917;-77
2021/08/13 12:25:30;;;;;;;;;;;30.90;52.50;;;;;;4991445;28;19918;-77
2021/08/13 12:27:56;;;;;;;;;;;30.80;51.80;;;;;;5006731;28;20308;-77
2021/08/13 12:30:21;;;;;;;;;;;30.60;52.70;;;;;;4991656;28;19918;-77
2021/08/13 12:32:47;;;;;;;;;;;30.40;52.00;;;;;;4991725;28;19920;-69
2021/08/13 12:35:13;;;;;;;;;;;30.10;52.90;;;;;;4998303;28;19918;-70
2021/08/13 12:37:40;;;;;;;;;;;30.20;53.40;;;;;;4998477;28;20013;-69
2021/08/13 12:40:07;;;;;;;;;;;30.20;53.30;;;;;;4991743;28;20059;-70
2021/08/13 12:42:33;;;;;;;;;;;30.20;53.70;;;;;;4991522;28;20439;-70
2021/08/13 12:44:59;;;;;;;;;;;30.30;53.70;;;;;;4981221;28;19918;-69
2021/08/13 12:47:24;;;;;;;;;;;30.40;53.60;;;;;;4990121;28;19914;-70
2021/08/13 12:49:50;;;;;;;;;;;30.40;53.00;;;;;;4990058;28;19972;-77
2021/08/13 12:52:16;;;;;;;;;;;30.30;53.50;;;;;;4991337;28;19914;-77
2021/08/13 12:54:43;;;;;;;;;;;30.30;53.40;;;;;;4990963;28;20495;-77
2021/08/13 12:57:13;;;;;;;;;;;30.30;53.70;;;;;;4991124;28;19967;-77
2021/08/13 12:59:40;;;;;;;;;;;30.40;53.30;;;;;;4991286;28;19909;-77
2021/08/13 13:02:05;;;;;;;;;;;30.40;53.40;;;;;;4991365;28;19933;-69
2021/08/13 13:04:57;;;;;;;;;;;30.30;53.50;;;;;;5005732;28;19918;-70
2021/08/13 13:07:30;;;;;;;;;;;30.20;53.40;;;;;;4987668;28;20308;-72
2021/08/13 13:09:55;;;;;;;;;;;30.10;53.50;;;;;;4990933;28;20450;-72
2021/08/13 13:12:27;;;;;;;;;;;30.10;53.90;;;;;;4990975;28;19914;-73
2021/08/13 13:14:54;;;;;;;;;;;30.20;54.20;;;;;;4991098;28;20020;-74
2021/08/13 13:17:19;;;;;;;;;;;30.20;53.50;;;;;;4990996;28;19913;-74
2021/08/13 13:20:03;;;;;;;;;;;30.30;53.70;;;;;;4990995;28;20337;-74
2021/08/13 13:22:28;;;;;;;;;;;30.30;53.30;;;;;;4990868;28;19910;-70
2021/08/13 13:25:13;;;;;;;;;;;30.30;53.70;;;;;;4990437;28;19961;-69
2021/08/13 13:27:49;;;;;;;;;;;30.30;53.60;;;;;;4981455;28;20304;-77
2021/08/13 13:30:33;;;;;;;;;;;30.30;53.50;;;;;;4990949;28;20377;-77
2021/08/13 13:33:03;;;;;;;;;;;30.20;53.80;;;;;;4990419;28;20411;-77
2021/08/13 13:35:28;;;;;;;;;;;30.30;53.60;;;;;;4990059;28;20028;-77
2021/08/13 13:37:54;;;;;;;;;;;30.40;53.90;;;;;;4990916;28;20049;-77
2021/08/13 13:40:19;;;;;;;;;;;30.40;53.40;;;;;;4990827;28;19910;-77
2021/08/13 13:42:45;;;;;;;;;;;30.40;53.60;;;;;;4981256;28;19925;-77
2021/08/13 13:45:11;;;;;;;;;;;30.40;53.70;;;;;;4990545;28;20457;-78
2021/08/13 13:47:38;;;;;;;;;;;30.30;52.70;;;;;;4991001;28;20409;-77
2021/08/13 13:50:03;;;;;;;;;;;30.20;53.40;;;;;;4990030;28;19984;-77
2021/08/13 13:52:29;;;;;;;;;;;30.10;53.50;;;;;;4990704;28;19917;-75
2021/08/13 13:54:54;;;;;;;;;;;30.10;53.10;;;;;;4990458;28;19964;-74
2021/08/13 13:57:19;;;;;;;;;;;30.30;53.20;;;;;;4991968;28;19968;-74
2021/08/13 13:59:45;;;;;;;;;;;30.30;53.30;;;;;;5009672;28;20340;-74
2021/08/13 14:02:10;;;;;;;;;;;30.40;53.10;;;;;;4994705;28;19910;-72
2021/08/13 14:04:36;;;;;;;;;;;30.40;53.30;;;;;;4993955;28;19918;-72
2021/08/13 14:07:01;;;;;;;;;;;30.50;53.00;;;;;;4994467;28;19917;-78
2021/08/13 14:09:27;;;;;;;;;;;30.60;52.70;;;;;;4994185;28;20272;-78
2021/08/13 14:11:52;;;;;;;;;;;30.50;51.70;;;;;;4994642;28;19941;-78
2021/08/13 14:14:17;;;;;;;;;;;30.40;52.50;;;;;;4993794;28;19916;-78
2021/08/13 14:16:43;;;;;;;;;;;30.50;52.70;;;;;;4994079;28;19917;-78
2021/08/13 14:19:10;;;;;;;;;;;30.50;52.60;;;;;;4994362;28;19910;-72